sensor_id;sensor_type;location;lat;lon;timestamp;P1;durP1;ratioP1;P2;durP2;ratioP2
27999;SDS011;15328;50.860;10.562;2023-06-22T00:02:58;4.10;;;3.13;;
27999;SDS011;15328;50.860;10.562;2023-06-22T00:08:01;4.70;;;3.37;;
27999;SDS011;15328;50.860;10.562;2023-06-22T00:13:03;4.45;;;3.50;;
27999;SDS011;15328;50.860;10.562;2023-06-22T00:18:04;5.35;;;3.17;;
27999;SDS011;15328;50.860;10.562;2023-06-22T00:23:06;4.22;;;3.33;;
27999;SDS011;15328;50.860;10.562;2023-06-22T00:28:09;4.80;;;3.83;;
27999;SDS011;15328;50.860;10.562;2023-06-22T00:33:10;4.50;;;3.93;;
27999;SDS011;15328;50.860;10.562;2023-06-22T00:38:10;6.07;;;3.80;;
27999;SDS011;15328;50.860;10.562;2023-06-22T00:43:11;4.30;;;3.30;;
27999;SDS011;15328;50.860;10.562;2023-06-22T00:48:11;4.33;;;3.53;;
27999;SDS011;15328;50.860;10.562;2023-06-22T00:53:13;6.45;;;4.10;;
27999;SDS011;15328;50.860;10.562;2023-06-22T00:58:14;4.73;;;3.90;;
27999;SDS011;15328;50.860;10.562;2023-06-22T01:03:14;6.20;;;4.30;;
27999;SDS011;15328;50.860;10.562;2023-06-22T01:08:23;6.30;;;4.50;;
27999;SDS011;15328;50.860;10.562;2023-06-22T01:13:47;4.82;;;4.07;;
27999;SDS011;15328;50.860;10.562;2023-06-22T01:18:55;5.75;;;4.20;;
27999;SDS011;15328;50.860;10.562;2023-06-22T01:24:04;5.15;;;4.18;;
27999;SDS011;15328;50.860;10.562;2023-06-22T01:29:22;4.43;;;3.97;;
27999;SDS011;15328;50.860;10.562;2023-06-22T01:40:14;5.22;;;4.57;;
27999;SDS011;15328;50.860;10.562;2023-06-22T01:45:15;5.03;;;4.28;;
27999;SDS011;15328;50.860;10.562;2023-06-22T01:50:16;6.78;;;4.50;;
27999;SDS011;15328;50.860;10.562;2023-06-22T01:55:16;5.18;;;4.32;;
27999;SDS011;15328;50.860;10.562;2023-06-22T02:00:20;7.23;;;5.20;;
27999;SDS011;15328;50.860;10.562;2023-06-22T02:05:23;7.10;;;5.10;;
27999;SDS011;15328;50.860;10.562;2023-06-22T02:10:27;6.38;;;5.60;;
27999;SDS011;15328;50.860;10.562;2023-06-22T02:15:29;5.88;;;5.10;;
27999;SDS011;15328;50.860;10.562;2023-06-22T02:20:29;6.60;;;5.20;;
27999;SDS011;15328;50.860;10.562;2023-06-22T02:25:30;5.90;;;4.90;;
27999;SDS011;15328;50.860;10.562;2023-06-22T02:30:31;6.03;;;4.82;;
27999;SDS011;15328;50.860;10.562;2023-06-22T02:35:31;5.63;;;4.80;;
27999;SDS011;15328;50.860;10.562;2023-06-22T02:40:35;4.90;;;4.18;;
27999;SDS011;15328;50.860;10.562;2023-06-22T02:45:35;5.87;;;4.63;;
27999;SDS011;15328;50.860;10.562;2023-06-22T02:50:36;6.23;;;4.00;;
27999;SDS011;15328;50.860;10.562;2023-06-22T02:55:36;5.13;;;4.23;;
27999;SDS011;15328;50.860;10.562;2023-06-22T03:00:36;6.53;;;5.33;;
27999;SDS011;15328;50.860;10.562;2023-06-22T03:05:39;7.10;;;6.00;;
27999;SDS011;15328;50.860;10.562;2023-06-22T03:10:40;6.55;;;5.13;;
27999;SDS011;15328;50.860;10.562;2023-06-22T03:15:40;6.53;;;4.67;;
27999;SDS011;15328;50.860;10.562;2023-06-22T03:20:41;5.33;;;4.20;;
27999;SDS011;15328;50.860;10.562;2023-06-22T03:25:44;7.05;;;5.15;;
27999;SDS011;15328;50.860;10.562;2023-06-22T03:30:45;5.93;;;4.72;;
27999;SDS011;15328;50.860;10.562;2023-06-22T03:35:45;5.23;;;4.17;;
27999;SDS011;15328;50.860;10.562;2023-06-22T03:40:46;5.30;;;4.70;;
27999;SDS011;15328;50.860;10.562;2023-06-22T03:45:46;6.43;;;4.82;;
27999;SDS011;15328;50.860;10.562;2023-06-22T03:50:46;6.28;;;4.78;;
27999;SDS011;15328;50.860;10.562;2023-06-22T03:55:50;6.53;;;4.90;;
27999;SDS011;15328;50.860;10.562;2023-06-22T04:00:52;5.65;;;4.95;;
27999;SDS011;15328;50.860;10.562;2023-06-22T04:05:53;5.35;;;4.60;;
27999;SDS011;15328;50.860;10.562;2023-06-22T04:10:53;5.65;;;4.40;;
27999;SDS011;15328;50.860;10.562;2023-06-22T04:15:53;6.75;;;4.90;;
27999;SDS011;15328;50.860;10.562;2023-06-22T04:20:54;6.43;;;5.05;;
27999;SDS011;15328;50.860;10.562;2023-06-22T04:25:54;5.73;;;4.83;;
27999;SDS011;15328;50.860;10.562;2023-06-22T04:30:56;5.53;;;4.53;;
27999;SDS011;15328;50.860;10.562;2023-06-22T04:35:58;5.15;;;4.50;;
27999;SDS011;15328;50.860;10.562;2023-06-22T04:41:01;6.15;;;4.88;;
27999;SDS011;15328;50.860;10.562;2023-06-22T04:46:02;6.53;;;5.53;;
27999;SDS011;15328;50.860;10.562;2023-06-22T04:51:03;6.03;;;5.00;;
27999;SDS011;15328;50.860;10.562;2023-06-22T04:56:04;5.97;;;4.80;;
27999;SDS011;15328;50.860;10.562;2023-06-22T05:01:05;5.50;;;4.77;;
27999;SDS011;15328;50.860;10.562;2023-06-22T05:06:05;5.20;;;4.60;;
27999;SDS011;15328;50.860;10.562;2023-06-22T05:11:05;5.05;;;4.50;;
27999;SDS011;15328;50.860;10.562;2023-06-22T05:16:06;5.82;;;4.88;;
27999;SDS011;15328;50.860;10.562;2023-06-22T05:21:07;6.60;;;5.45;;
27999;SDS011;15328;50.860;10.562;2023-06-22T05:26:07;7.55;;;5.55;;
27999;SDS011;15328;50.860;10.562;2023-06-22T05:31:10;6.18;;;5.03;;
27999;SDS011;15328;50.860;10.562;2023-06-22T05:36:10;6.15;;;4.95;;
27999;SDS011;15328;50.860;10.562;2023-06-22T05:41:11;5.25;;;4.70;;
27999;SDS011;15328;50.860;10.562;2023-06-22T05:46:11;5.45;;;4.35;;
27999;SDS011;15328;50.860;10.562;2023-06-22T05:51:12;6.50;;;5.00;;
27999;SDS011;15328;50.860;10.562;2023-06-22T05:56:12;5.33;;;4.00;;
27999;SDS011;15328;50.860;10.562;2023-06-22T06:01:12;4.78;;;4.07;;
27999;SDS011;15328;50.860;10.562;2023-06-22T06:06:15;5.78;;;4.53;;
27999;SDS011;15328;50.860;10.562;2023-06-22T06:11:17;5.30;;;4.50;;
27999;SDS011;15328;50.860;10.562;2023-06-22T06:16:17;6.63;;;5.60;;
27999;SDS011;15328;50.860;10.562;2023-06-22T06:21:17;6.32;;;5.53;;
27999;SDS011;15328;50.860;10.562;2023-06-22T06:26:18;6.60;;;5.70;;
27999;SDS011;15328;50.860;10.562;2023-06-22T06:31:23;7.22;;;5.20;;
27999;SDS011;15328;50.860;10.562;2023-06-22T06:36:23;6.53;;;5.33;;
27999;SDS011;15328;50.860;10.562;2023-06-22T06:41:23;6.37;;;5.20;;
27999;SDS011;15328;50.860;10.562;2023-06-22T06:46:24;7.23;;;5.57;;
27999;SDS011;15328;50.860;10.562;2023-06-22T06:51:24;7.13;;;5.90;;
27999;SDS011;15328;50.860;10.562;2023-06-22T06:56:24;6.93;;;6.00;;
27999;SDS011;15328;50.860;10.562;2023-06-22T07:01:25;6.53;;;5.70;;
27999;SDS011;15328;50.860;10.562;2023-06-22T07:06:25;7.63;;;5.57;;
27999;SDS011;15328;50.860;10.562;2023-06-22T07:11:29;6.93;;;5.85;;
27999;SDS011;15328;50.860;10.562;2023-06-22T07:16:29;6.85;;;5.78;;
27999;SDS011;15328;50.860;10.562;2023-06-22T07:21:31;6.38;;;5.68;;
27999;SDS011;15328;50.860;10.562;2023-06-22T07:26:31;7.00;;;6.30;;
27999;SDS011;15328;50.860;10.562;2023-06-22T07:31:32;8.15;;;6.50;;
27999;SDS011;15328;50.860;10.562;2023-06-22T07:36:32;7.10;;;6.23;;
27999;SDS011;15328;50.860;10.562;2023-06-22T07:41:35;7.53;;;6.18;;
27999;SDS011;15328;50.860;10.562;2023-06-22T07:46:35;6.77;;;6.03;;
27999;SDS011;15328;50.860;10.562;2023-06-22T07:51:36;10.93;;;7.27;;
27999;SDS011;15328;50.860;10.562;2023-06-22T07:56:36;7.93;;;7.13;;
27999;SDS011;15328;50.860;10.562;2023-06-22T08:01:37;8.68;;;7.60;;
27999;SDS011;15328;50.860;10.562;2023-06-22T08:06:37;8.90;;;6.60;;
27999;SDS011;15328;50.860;10.562;2023-06-22T08:11:38;8.47;;;7.00;;
27999;SDS011;15328;50.860;10.562;2023-06-22T08:16:38;7.00;;;6.30;;
27999;SDS011;15328;50.860;10.562;2023-06-22T08:21:38;8.73;;;7.20;;
27999;SDS011;15328;50.860;10.562;2023-06-22T08:26:39;7.63;;;6.78;;
27999;SDS011;15328;50.860;10.562;2023-06-22T08:31:39;7.13;;;6.43;;
27999;SDS011;15328;50.860;10.562;2023-06-22T08:36:39;7.67;;;6.87;;
27999;SDS011;15328;50.860;10.562;2023-06-22T08:41:43;8.93;;;7.22;;
27999;SDS011;15328;50.860;10.562;2023-06-22T08:46:43;8.23;;;6.57;;
27999;SDS011;15328;50.860;10.562;2023-06-22T08:51:43;7.93;;;6.50;;
27999;SDS011;15328;50.860;10.562;2023-06-22T08:56:45;7.60;;;6.80;;
27999;SDS011;15328;50.860;10.562;2023-06-22T09:01:45;8.50;;;7.53;;
27999;SDS011;15328;50.860;10.562;2023-06-22T09:06:48;10.18;;;7.63;;
27999;SDS011;15328;50.860;10.562;2023-06-22T09:11:49;7.63;;;6.82;;
27999;SDS011;15328;50.860;10.562;2023-06-22T09:16:50;7.47;;;6.50;;
27999;SDS011;15328;50.860;10.562;2023-06-22T09:21:50;8.47;;;6.50;;
27999;SDS011;15328;50.860;10.562;2023-06-22T09:26:51;8.60;;;6.37;;
27999;SDS011;15328;50.860;10.562;2023-06-22T09:31:51;7.40;;;6.65;;
27999;SDS011;15328;50.860;10.562;2023-06-22T09:36:53;7.40;;;6.35;;
27999;SDS011;15328;50.860;10.562;2023-06-22T09:41:55;7.93;;;7.13;;
27999;SDS011;15328;50.860;10.562;2023-06-22T09:46:55;6.87;;;6.13;;
27999;SDS011;15328;50.860;10.562;2023-06-22T09:51:55;5.93;;;5.33;;
27999;SDS011;15328;50.860;10.562;2023-06-22T09:56:56;7.87;;;6.97;;
27999;SDS011;15328;50.860;10.562;2023-06-22T10:01:56;7.67;;;6.50;;
27999;SDS011;15328;50.860;10.562;2023-06-22T10:06:56;8.23;;;6.63;;
27999;SDS011;15328;50.860;10.562;2023-06-22T10:11:57;7.43;;;6.63;;
27999;SDS011;15328;50.860;10.562;2023-06-22T10:16:57;7.20;;;5.80;;
27999;SDS011;15328;50.860;10.562;2023-06-22T10:21:57;7.07;;;5.33;;
27999;SDS011;15328;50.860;10.562;2023-06-22T10:26:58;7.50;;;6.70;;
27999;SDS011;15328;50.860;10.562;2023-06-22T10:31:58;8.60;;;5.90;;
27999;SDS011;15328;50.860;10.562;2023-06-22T10:36:59;6.60;;;5.87;;
27999;SDS011;15328;50.860;10.562;2023-06-22T10:41:59;5.53;;;5.03;;
27999;SDS011;15328;50.860;10.562;2023-06-22T10:46:59;7.17;;;6.03;;
27999;SDS011;15328;50.860;10.562;2023-06-22T10:52:00;6.27;;;5.67;;
27999;SDS011;15328;50.860;10.562;2023-06-22T10:57:00;6.53;;;5.23;;
27999;SDS011;15328;50.860;10.562;2023-06-22T11:02:01;8.77;;;5.70;;
27999;SDS011;15328;50.860;10.562;2023-06-22T11:07:02;8.43;;;6.38;;
27999;SDS011;15328;50.860;10.562;2023-06-22T11:12:03;6.25;;;5.47;;
27999;SDS011;15328;50.860;10.562;2023-06-22T11:17:04;6.38;;;5.38;;
27999;SDS011;15328;50.860;10.562;2023-06-22T11:22:04;6.03;;;5.43;;
27999;SDS011;15328;50.860;10.562;2023-06-22T11:27:05;6.30;;;5.70;;
27999;SDS011;15328;50.860;10.562;2023-06-22T11:32:06;6.65;;;6.05;;
27999;SDS011;15328;50.860;10.562;2023-06-22T11:37:07;6.65;;;5.90;;
27999;SDS011;15328;50.860;10.562;2023-06-22T11:42:08;6.22;;;5.63;;
27999;SDS011;15328;50.860;10.562;2023-06-22T11:47:11;6.20;;;5.60;;
27999;SDS011;15328;50.860;10.562;2023-06-22T11:52:12;5.20;;;4.70;;
27999;SDS011;15328;50.860;10.562;2023-06-22T11:57:12;6.07;;;5.47;;
27999;SDS011;15328;50.860;10.562;2023-06-22T12:02:13;6.70;;;5.95;;
27999;SDS011;15328;50.860;10.562;2023-06-22T12:07:13;6.67;;;5.77;;
27999;SDS011;15328;50.860;10.562;2023-06-22T12:12:14;8.27;;;6.45;;
27999;SDS011;15328;50.860;10.562;2023-06-22T12:17:15;6.30;;;5.70;;
27999;SDS011;15328;50.860;10.562;2023-06-22T12:22:15;7.57;;;6.00;;
27999;SDS011;15328;50.860;10.562;2023-06-22T12:27:16;6.18;;;5.55;;
27999;SDS011;15328;50.860;10.562;2023-06-22T12:32:18;6.53;;;5.68;;
27999;SDS011;15328;50.860;10.562;2023-06-22T12:37:18;6.60;;;5.80;;
27999;SDS011;15328;50.860;10.562;2023-06-22T12:42:19;8.43;;;5.73;;
27999;SDS011;15328;50.860;10.562;2023-06-22T12:47:19;5.83;;;5.23;;
27999;SDS011;15328;50.860;10.562;2023-06-22T12:52:20;6.82;;;6.05;;
27999;SDS011;15328;50.860;10.562;2023-06-22T12:57:20;6.30;;;5.70;;
27999;SDS011;15328;50.860;10.562;2023-06-22T13:02:21;6.40;;;5.70;;
27999;SDS011;15328;50.860;10.562;2023-06-22T13:07:21;7.43;;;5.82;;
27999;SDS011;15328;50.860;10.562;2023-06-22T13:12:22;6.38;;;5.78;;
27999;SDS011;15328;50.860;10.562;2023-06-22T13:17:22;6.10;;;4.93;;
27999;SDS011;15328;50.860;10.562;2023-06-22T13:22:32;7.83;;;5.83;;
27999;SDS011;15328;50.860;10.562;2023-06-22T13:27:40;5.65;;;5.05;;
27999;SDS011;15328;50.860;10.562;2023-06-22T13:32:41;5.82;;;5.22;;
27999;SDS011;15328;50.860;10.562;2023-06-22T13:37:42;7.07;;;6.07;;
27999;SDS011;15328;50.860;10.562;2023-06-22T13:42:42;6.67;;;5.97;;
27999;SDS011;15328;50.860;10.562;2023-06-22T13:47:43;7.77;;;5.93;;
27999;SDS011;15328;50.860;10.562;2023-06-22T13:52:43;8.83;;;6.13;;
27999;SDS011;15328;50.860;10.562;2023-06-22T13:57:43;6.50;;;5.70;;
27999;SDS011;15328;50.860;10.562;2023-06-22T14:02:44;7.50;;;6.00;;
27999;SDS011;15328;50.860;10.562;2023-06-22T14:07:44;6.60;;;5.70;;
27999;SDS011;15328;50.860;10.562;2023-06-22T14:12:45;11.60;;;6.68;;
27999;SDS011;15328;50.860;10.562;2023-06-22T14:17:45;6.43;;;5.82;;
27999;SDS011;15328;50.860;10.562;2023-06-22T14:22:46;6.70;;;6.00;;
27999;SDS011;15328;50.860;10.562;2023-06-22T14:27:46;7.83;;;5.90;;
27999;SDS011;15328;50.860;10.562;2023-06-22T14:32:47;6.25;;;5.65;;
27999;SDS011;15328;50.860;10.562;2023-06-22T14:37:47;7.10;;;6.17;;
27999;SDS011;15328;50.860;10.562;2023-06-22T14:42:48;10.60;;;6.97;;
27999;SDS011;15328;50.860;10.562;2023-06-22T14:47:49;7.93;;;6.07;;
27999;SDS011;15328;50.860;10.562;2023-06-22T14:52:49;6.32;;;5.55;;
27999;SDS011;15328;50.860;10.562;2023-06-22T14:57:49;6.50;;;5.47;;
27999;SDS011;15328;50.860;10.562;2023-06-22T15:02:50;5.50;;;4.93;;
27999;SDS011;15328;50.860;10.562;2023-06-22T15:07:51;7.10;;;6.07;;
27999;SDS011;15328;50.860;10.562;2023-06-22T15:12:51;5.90;;;5.30;;
27999;SDS011;15328;50.860;10.562;2023-06-22T15:17:52;5.50;;;5.00;;
27999;SDS011;15328;50.860;10.562;2023-06-22T15:22:52;4.90;;;4.40;;
27999;SDS011;15328;50.860;10.562;2023-06-22T15:27:52;5.72;;;4.63;;
27999;SDS011;15328;50.860;10.562;2023-06-22T15:32:53;4.43;;;4.03;;
27999;SDS011;15328;50.860;10.562;2023-06-22T15:37:54;4.68;;;3.90;;
27999;SDS011;15328;50.860;10.562;2023-06-22T15:42:55;4.43;;;4.03;;
27999;SDS011;15328;50.860;10.562;2023-06-22T15:47:55;4.22;;;3.83;;
27999;SDS011;15328;50.860;10.562;2023-06-22T15:52:56;4.53;;;4.00;;
27999;SDS011;15328;50.860;10.562;2023-06-22T15:57:56;5.37;;;3.90;;
27999;SDS011;15328;50.860;10.562;2023-06-22T16:02:56;4.15;;;3.72;;
27999;SDS011;15328;50.860;10.562;2023-06-22T16:07:57;3.70;;;3.37;;
27999;SDS011;15328;50.860;10.562;2023-06-22T16:12:57;3.85;;;3.45;;
27999;SDS011;15328;50.860;10.562;2023-06-22T16:17:58;4.40;;;3.20;;
27999;SDS011;15328;50.860;10.562;2023-06-22T16:22:58;4.57;;;3.33;;
27999;SDS011;15328;50.860;10.562;2023-06-22T16:27:58;5.17;;;3.53;;
27999;SDS011;15328;50.860;10.562;2023-06-22T16:32:59;5.32;;;3.50;;
27999;SDS011;15328;50.860;10.562;2023-06-22T16:38:02;6.40;;;3.30;;
27999;SDS011;15328;50.860;10.562;2023-06-22T16:43:03;4.95;;;3.63;;
27999;SDS011;15328;50.860;10.562;2023-06-22T16:48:07;4.47;;;3.50;;
27999;SDS011;15328;50.860;10.562;2023-06-22T16:53:09;4.32;;;3.40;;
27999;SDS011;15328;50.860;10.562;2023-06-22T16:58:09;5.20;;;3.10;;
27999;SDS011;15328;50.860;10.562;2023-06-22T17:03:15;4.18;;;2.92;;
27999;SDS011;15328;50.860;10.562;2023-06-22T17:08:20;3.37;;;2.77;;
27999;SDS011;15328;50.860;10.562;2023-06-22T17:13:21;4.03;;;2.90;;
27999;SDS011;15328;50.860;10.562;2023-06-22T17:18:22;4.00;;;2.90;;
27999;SDS011;15328;50.860;10.562;2023-06-22T17:23:26;3.13;;;2.67;;
27999;SDS011;15328;50.860;10.562;2023-06-22T17:28:27;3.67;;;2.80;;
27999;SDS011;15328;50.860;10.562;2023-06-22T17:33:48;3.20;;;2.83;;
27999;SDS011;15328;50.860;10.562;2023-06-22T17:38:49;3.15;;;2.70;;
27999;SDS011;15328;50.860;10.562;2023-06-22T17:43:49;2.90;;;2.57;;
27999;SDS011;15328;50.860;10.562;2023-06-22T17:48:52;3.33;;;2.87;;
27999;SDS011;15328;50.860;10.562;2023-06-22T17:53:52;2.97;;;2.65;;
27999;SDS011;15328;50.860;10.562;2023-06-22T17:58:53;3.22;;;2.45;;
27999;SDS011;15328;50.860;10.562;2023-06-22T18:03:53;3.58;;;3.00;;
27999;SDS011;15328;50.860;10.562;2023-06-22T18:08:58;4.22;;;2.95;;
27999;SDS011;15328;50.860;10.562;2023-06-22T18:14:02;3.53;;;3.17;;
27999;SDS011;15328;50.860;10.562;2023-06-22T18:19:04;3.85;;;3.30;;
27999;SDS011;15328;50.860;10.562;2023-06-22T18:24:04;3.57;;;2.80;;
27999;SDS011;15328;50.860;10.562;2023-06-22T18:29:05;3.45;;;3.03;;
27999;SDS011;15328;50.860;10.562;2023-06-22T18:34:08;3.45;;;3.05;;
27999;SDS011;15328;50.860;10.562;2023-06-22T18:39:10;5.65;;;4.55;;
27999;SDS011;15328;50.860;10.562;2023-06-22T18:44:19;11.18;;;4.85;;
27999;SDS011;15328;50.860;10.562;2023-06-22T18:49:21;10.20;;;6.38;;
27999;SDS011;15328;50.860;10.562;2023-06-22T18:54:39;5.22;;;3.33;;
27999;SDS011;15328;50.860;10.562;2023-06-22T19:10:26;4.65;;;2.38;;
27999;SDS011;15328;50.860;10.562;2023-06-22T19:15:29;4.20;;;1.95;;
27999;SDS011;15328;50.860;10.562;2023-06-22T19:20:33;6.05;;;1.80;;
27999;SDS011;15328;50.860;10.562;2023-06-22T19:25:34;3.45;;;1.65;;
27999;SDS011;15328;50.860;10.562;2023-06-22T19:30:34;2.05;;;1.40;;
27999;SDS011;15328;50.860;10.562;2023-06-22T19:35:35;2.05;;;1.17;;
27999;SDS011;15328;50.860;10.562;2023-06-22T19:40:38;2.63;;;1.40;;
27999;SDS011;15328;50.860;10.562;2023-06-22T19:45:40;1.95;;;1.33;;
27999;SDS011;15328;50.860;10.562;2023-06-22T19:50:41;3.20;;;1.30;;
27999;SDS011;15328;50.860;10.562;2023-06-22T19:55:46;4.78;;;1.10;;
27999;SDS011;15328;50.860;10.562;2023-06-22T20:00:47;2.08;;;1.10;;
27999;SDS011;15328;50.860;10.562;2023-06-22T20:06:09;1.50;;;1.10;;
27999;SDS011;15328;50.860;10.562;2023-06-22T20:11:10;2.25;;;0.98;;
27999;SDS011;15328;50.860;10.562;2023-06-22T20:16:11;1.73;;;1.10;;
27999;SDS011;15328;50.860;10.562;2023-06-22T20:21:12;2.70;;;1.20;;
27999;SDS011;15328;50.860;10.562;2023-06-22T20:26:13;2.15;;;1.30;;
27999;SDS011;15328;50.860;10.562;2023-06-22T20:31:16;2.97;;;1.10;;
27999;SDS011;15328;50.860;10.562;2023-06-22T20:36:17;1.70;;;1.17;;
27999;SDS011;15328;50.860;10.562;2023-06-22T20:41:18;2.05;;;1.10;;
27999;SDS011;15328;50.860;10.562;2023-06-22T20:46:18;2.13;;;1.10;;
27999;SDS011;15328;50.860;10.562;2023-06-22T20:51:18;2.07;;;1.17;;
27999;SDS011;15328;50.860;10.562;2023-06-22T20:56:19;1.40;;;0.90;;
27999;SDS011;15328;50.860;10.562;2023-06-22T21:01:19;1.40;;;0.83;;
27999;SDS011;15328;50.860;10.562;2023-06-22T21:06:19;1.58;;;0.90;;
27999;SDS011;15328;50.860;10.562;2023-06-22T21:11:20;1.40;;;0.90;;
27999;SDS011;15328;50.860;10.562;2023-06-22T21:16:20;1.52;;;1.00;;
27999;SDS011;15328;50.860;10.562;2023-06-22T21:21:21;1.60;;;0.87;;
27999;SDS011;15328;50.860;10.562;2023-06-22T21:26:21;1.53;;;1.17;;
27999;SDS011;15328;50.860;10.562;2023-06-22T21:31:21;2.27;;;1.30;;
27999;SDS011;15328;50.860;10.562;2023-06-22T21:36:22;2.30;;;1.40;;
27999;SDS011;15328;50.860;10.562;2023-06-22T21:41:22;1.40;;;1.10;;
27999;SDS011;15328;50.860;10.562;2023-06-22T21:46:23;2.25;;;1.48;;
27999;SDS011;15328;50.860;10.562;2023-06-22T21:51:23;2.30;;;1.27;;
27999;SDS011;15328;50.860;10.562;2023-06-22T21:56:24;2.60;;;1.30;;
27999;SDS011;15328;50.860;10.562;2023-06-22T22:01:24;4.90;;;1.50;;
27999;SDS011;15328;50.860;10.562;2023-06-22T22:06:24;3.03;;;1.53;;
27999;SDS011;15328;50.860;10.562;2023-06-22T22:11:26;2.20;;;1.60;;
27999;SDS011;15328;50.860;10.562;2023-06-22T22:16:27;2.72;;;1.27;;
27999;SDS011;15328;50.860;10.562;2023-06-22T22:21:27;2.70;;;1.40;;
27999;SDS011;15328;50.860;10.562;2023-06-22T22:26:28;1.77;;;1.20;;
27999;SDS011;15328;50.860;10.562;2023-06-22T22:31:28;2.60;;;1.30;;
27999;SDS011;15328;50.860;10.562;2023-06-22T22:36:28;3.78;;;1.40;;
27999;SDS011;15328;50.860;10.562;2023-06-22T22:41:29;2.23;;;1.50;;
27999;SDS011;15328;50.860;10.562;2023-06-22T22:46:29;1.83;;;1.40;;
27999;SDS011;15328;50.860;10.562;2023-06-22T22:51:29;5.00;;;1.70;;
27999;SDS011;15328;50.860;10.562;2023-06-22T22:56:30;2.83;;;1.40;;
27999;SDS011;15328;50.860;10.562;2023-06-22T23:01:30;3.13;;;1.60;;
27999;SDS011;15328;50.860;10.562;2023-06-22T23:06:31;2.10;;;1.60;;
27999;SDS011;15328;50.860;10.562;2023-06-22T23:11:31;2.22;;;1.70;;
27999;SDS011;15328;50.860;10.562;2023-06-22T23:16:31;3.25;;;1.90;;
27999;SDS011;15328;50.860;10.562;2023-06-22T23:21:32;2.57;;;1.83;;
27999;SDS011;15328;50.860;10.562;2023-06-22T23:26:33;3.33;;;1.60;;
27999;SDS011;15328;50.860;10.562;2023-06-22T23:31:33;2.60;;;1.70;;
27999;SDS011;15328;50.860;10.562;2023-06-22T23:36:34;2.88;;;1.77;;
27999;SDS011;15328;50.860;10.562;2023-06-22T23:41:35;2.47;;;1.50;;
27999;SDS011;15328;50.860;10.562;2023-06-22T23:46:35;2.50;;;1.50;;
27999;SDS011;15328;50.860;10.562;2023-06-22T23:51:35;2.97;;;1.70;;
27999;SDS011;15328;50.860;10.562;2023-06-22T23:56:36;2.63;;;1.50;;
